Latest Weather Observations for Point Stuart

IDD60901

Issued at 6:11 am CST Saturday 16 October 2021 (issued every 10 minutes, with the page automatically refreshed every 10 minutes)

About weather observations | Map of Darwin area stations | Latest observations for Darwin area | Other Formats
Station Details ID: 014254 Name: POINT STUART Lat: -12.24 Lon: 131.88 Height: 1.0 m
Data from the previous 72 hours. | See also: Recent months at Point Stuart
Date/Time
CST
Temp
°C
App
Temp
°C
Dew
Point
°C
Rel
Hum
%
Delta-T
°C
Wind Press
QNH
hPa
Press
MSL
hPa
Rain since
9am
mm
Dir  Spd
km/h
Gust
km/h
Spd
kts
Gust
kts
16/06:00am 27.9 33.3 25.5 87 1.7 NNE 7 11 4 6 1008.3 1008.3 0.0
16/05:30am 27.3 32.0 24.9 87 1.7 NE 9 11 5 6 1007.9 1007.9 0.0
16/05:00am 27.3 32.2 24.7 86 1.8 NNE 7 9 4 5 1007.5 1007.5 0.0
16/04:30am 27.4 32.4 24.8 86 1.8 NNE 7 11 4 6 1007.4 1007.4 0.0
16/04:00am 27.6 32.1 24.6 84 2.1 NNE 9 13 5 7 1007.2 1007.2 0.0
16/03:30am 27.6 32.4 24.4 83 2.2 NNE 7 9 4 5 1007.2 1007.2 0.0
16/03:00am 27.8 32.7 24.6 83 2.2 NNE 7 11 4 6 1007.3 1007.3 0.0
16/02:30am 28.1 33.2 24.9 83 2.2 NE 7 13 4 7 1007.4 1007.4 0.0
16/02:00am 28.2 33.3 25.0 83 2.2 NNE 7 11 4 6 1007.7 1007.7 0.0
16/01:30am 28.0 33.1 25.0 84 2.1 NNE 7 11 4 6 1007.9 1007.9 0.0
16/01:00am 27.7 32.6 24.7 84 2.1 NNE 7 9 4 5 1008.2 1008.2 0.0
16/12:30am 27.9 32.8 24.7 83 2.2 NNE 7 11 4 6 1008.2 1008.2 0.0
16/12:00am 27.8 32.5 24.0 80 2.6 N 6 7 3 4 1008.6 1008.6 0.0
 
Date/Time
CST
Temp
°C
App
Temp
°C
Dew
Point
°C
Rel
Hum
%
Delta-T
°C
Wind Press
QNH
hPa
Press
MSL
hPa
Rain since
9am
mm
Dir  Spd
km/h
Gust
km/h
Spd
kts
Gust
kts
15/11:30pm 28.1 33.1 24.5 81 2.5 N 6 9 3 5 1008.8 1008.8 0.0
15/11:00pm 28.5 33.4 24.7 80 2.7 NNE 7 9 4 5 1008.9 1008.9 0.0
15/10:30pm 29.2 33.6 24.5 76 3.3 NNE 9 19 5 10 1009.3 1009.3 0.0
15/10:00pm 29.3 33.5 24.8 77 3.1 NE 11 15 6 8 1009.2 1009.2 0.0
15/09:30pm 29.3 34.1 24.4 75 3.4 NNE 7 11 4 6 1008.8 1008.8 0.0
15/09:00pm 29.6 34.1 24.0 72 3.9 N 7 9 4 5 1008.4 1008.4 0.0
15/08:30pm 29.8 33.2 23.3 68 4.5 NNW 11 15 6 8 1007.9 1007.9 0.0
15/08:00pm 30.0 32.6 22.7 65 5.0 NNW 13 19 7 10 1007.6 1007.6 0.0
15/07:30pm 30.5 32.7 21.9 60 5.8 NNW 13 24 7 13 1007.2 1007.2 0.0
15/07:00pm 30.7 31.4 21.2 57 6.4 NW 19 28 10 15 1006.8 1006.8 0.0
15/06:30pm 31.5 31.7 21.4 55 6.8 NW 22 30 12 16 1006.5 1006.5 0.0
15/06:00pm 31.3 32.1 23.1 61 5.7 NW 24 30 13 16 1006.0 1006.0 0.0
15/05:30pm 31.0 34.2 24.9 70 4.3 NW 17 24 9 13 1005.8 1005.8 0.0
15/05:00pm 31.5 34.7 24.4 66 5.0 NNW 15 26 8 14 1005.7 1005.7 0.0
15/04:30pm 32.8 35.0 23.2 57 6.6 NNW 17 28 9 15 1005.4 1005.4 0.0
15/04:00pm 33.9 35.7 23.3 54 7.4 NNW 19 28 10 15 1005.5 1005.5 0.0
15/03:30pm 34.9 37.7 23.6 52 7.9 NNW 15 26 8 14 1005.7 1005.7 0.0
15/03:00pm 34.9 37.5 23.9 53 7.7 NNW 17 26 9 14 1006.1 1006.1 0.0
15/02:30pm 34.6 36.6 23.0 51 8.0 NNW 17 24 9 13 1006.4 1006.4 0.0
15/02:00pm 35.2 37.4 23.2 49 8.3 NNW 17 26 9 14 1006.5 1006.5 0.0
15/01:30pm 36.2 38.7 23.8 49 8.7 NNW 17 26 9 14 1006.9 1006.9 0.0
15/01:00pm 35.5 37.1 22.1 45 9.2 NNW 17 30 9 16 1007.7 1007.7 0.0
15/12:30pm 35.9 38.6 24.2 51 8.3 NNW 17 28 9 15 1008.4 1008.4 0.0
15/12:00pm 35.2 37.6 24.2 53 7.7 NNW 19 28 10 15 1008.8 1008.8 0.0
15/11:30am 35.0 37.2 24.3 54 7.5 NW 20 28 11 15 1009.2 1009.2 0.0
15/11:00am 34.7 36.9 24.3 54 7.3 NW 20 28 11 15 1009.5 1009.5 0.0
15/10:30am 34.0 36.1 23.7 55 7.2 NW 19 26 10 14 1009.9 1009.9 0.0
15/10:00am 33.9 35.6 22.3 50 7.9 NW 17 24 9 13 1010.0 1010.0 0.0
15/09:30am 33.1 33.8 19.6 45 8.9 WSW 15 20 8 11 1010.2 1010.2 0.0
15/09:00am 31.9 34.7 22.3 56 6.5 W 11 17 6 9 1010.2 1010.2 0.0
15/08:30am 30.6 34.6 23.8 67 4.7 SSW 9 15 5 8 1010.2 1010.2 0.0
15/08:00am 29.4 33.2 24.7 76 3.3 S 13 17 7 9 1010.1 1010.1 0.0
15/07:30am 27.8 32.1 24.2 81 2.5 S 9 13 5 7 1009.8 1009.8 0.0
15/07:00am 26.0 29.2 23.7 87 1.6 SSW 13 15 7 8 1009.3 1009.3 0.0
15/06:30am 25.7 29.0 22.6 83 2.1 SW 9 11 5 6 1008.8 1008.8 0.0
15/06:00am 25.8 29.3 22.9 84 2.0 NW 9 11 5 6 1008.5 1008.5 0.0
15/05:30am 26.1 29.7 23.0 83 2.1 NNW 9 11 5 6 1008.3 1008.3 0.0
15/05:00am 26.5 29.5 22.6 79 2.6 NW 11 13 6 7 1008.2 1008.2 0.0
15/04:30am 27.2 30.7 22.8 77 3.0 NW 9 17 5 9 1008.1 1008.1 0.0
15/04:00am 27.4 30.5 23.6 80 2.6 NNW 13 19 7 10 1007.9 1007.9 0.0
15/03:30am 27.6 30.7 24.2 82 2.4 NW 15 19 8 10 1007.8 1007.8 0.0
15/03:00am 27.8 31.3 24.2 81 2.5 NNW 13 19 7 10 1007.7 1007.7 0.0
15/02:30am 27.9 31.3 24.1 80 2.6 NNW 13 20 7 11 1008.0 1008.0 0.0
15/02:00am 28.3 32.0 25.1 83 2.2 NNW 15 24 8 13 1008.0 1008.0 0.0
15/01:30am 28.3 31.6 25.1 83 2.2 NW 17 24 9 13 1008.4 1008.4 0.0
15/01:00am 28.1 31.8 24.5 81 2.5 NW 13 19 7 10 1009.0 1009.0 0.0
15/12:30am 28.5 32.5 25.1 82 2.4 NNW 13 20 7 11 1009.3 1009.3 0.0
15/12:00am 28.2 32.3 25.2 84 2.1 NNW 13 20 7 11 1009.8 1009.8 0.0
 
Date/Time
CST
Temp
°C
App
Temp
°C
Dew
Point
°C
Rel
Hum
%
Delta-T
°C
Wind Press
QNH
hPa
Press
MSL
hPa
Rain since
9am
mm
Dir  Spd
km/h
Gust
km/h
Spd
kts
Gust
kts
14/11:30pm 27.9 32.5 25.3 86 1.8 NW 11 17 6 9 1009.8 1009.8 0.0
14/11:00pm 27.5 32.7 25.1 87 1.7 NNW 7 11 4 6 1010.0 1010.0 0.0
14/10:30pm 27.7 32.5 24.5 83 2.2 NNW 7 11 4 6 1010.0 1010.0 0.0
14/10:00pm 28.1 32.9 24.1 79 2.8 NNW 6 7 3 4 1009.9 1009.9 0.0
14/09:30pm 28.1 31.8 24.5 81 2.5 NW 13 17 7 9 1009.6 1009.6 0.0
14/09:00pm 28.3 32.4 23.9 77 3.0 NNW 9 11 5 6 1009.5 1009.5 0.0
14/08:30pm 28.6 32.9 24.2 77 3.1 NNW 9 13 5 7 1009.1 1009.1 0.0
14/08:00pm 29.1 33.0 24.2 75 3.4 NNW 11 15 6 8 1008.6 1008.6 0.0
14/07:30pm 29.4 31.8 23.6 71 4.0 NW 17 20 9 11 1008.1 1008.1 0.0
14/07:00pm 29.8 31.8 23.0 67 4.7 NW 17 20 9 11 1008.1 1008.1 0.0
14/06:30pm 30.7 33.4 22.8 62 5.4 WNW 13 19 7 10 1007.8 1007.8 0.0
14/06:00pm 31.6 33.4 22.6 59 6.2 WNW 17 22 9 12 1007.5 1007.5 0.0
14/05:30pm 32.0 35.2 22.4 57 6.6 NNW 9 15 5 8 1006.8 1006.8 0.0
14/05:00pm 31.7 34.2 21.8 55 6.7 NNW 11 19 6 10 1006.5 1006.5 0.0
14/04:30pm 32.5 34.0 19.7 46 8.5 NW 11 17 6 9 1006.2 1006.2 0.0
14/04:00pm 32.9 35.0 21.7 51 7.6 NNW 13 20 7 11 1006.3 1006.3 0.0
14/03:30pm 33.2 35.5 22.0 51 7.6 NNW 13 19 7 10 1006.3 1006.3 0.0
14/03:00pm 33.6 35.9 22.7 53 7.5 NNW 15 26 8 14 1006.7 1006.7 0.0
14/02:30pm 33.4 37.0 24.3 59 6.4 NNW 13 24 7 13 1007.0 1007.0 0.0
14/02:00pm 33.9 37.4 24.2 57 6.8 NNW 13 24 7 13 1007.0 1007.0 0.0
14/01:30pm 34.1 37.0 23.8 55 7.2 N 15 24 8 13 1007.5 1007.5 0.0
14/01:00pm 34.6 38.3 24.5 55 7.1 NNW 13 20 7 11 1008.0 1008.0 0.0
14/12:30pm 34.2 37.6 24.7 57 6.7 NNW 15 26 8 14 1008.5 1008.5 0.0
14/12:00pm 33.8 37.8 24.4 58 6.6 NNW 11 19 6 10 1008.8 1008.8 0.0
14/11:30am 33.6 37.2 25.0 60 6.1 NNW 15 24 8 13 1009.0 1009.0 0.0
14/11:00am 33.7 38.3 25.4 62 5.9 NNW 11 17 6 9 1009.4 1009.4 0.0
14/10:30am 32.3 36.0 24.6 64 5.4 NNW 13 22 7 12 1009.5 1009.5 0.0
14/10:00am 32.9 37.8 25.9 66 5.0 NNW 11 17 6 9 1009.5 1009.5 0.0
14/09:30am 31.3 35.8 25.2 70 4.3 NNW 11 19 6 10 1009.8 1009.8 0.0
14/09:00am 31.5 36.1 25.4 70 4.3 N 11 19 6 10 1009.7 1009.7 0.0
14/08:30am 31.7 37.1 26.0 72 4.1 NNW 9 15 5 8 1009.5 1009.5 0.0
14/08:00am 29.4 35.5 26.2 83 2.3 NE 6 11 3 6 1009.1 1009.1 0.0
14/07:30am 26.8 31.7 24.3 86 1.7 E 6 7 3 4 1008.8 1008.8 0.0
14/07:00am 25.8 30.0 23.5 87 1.6 ENE 7 7 4 4 1008.6 1008.6 0.0
14/06:30am 24.9 28.9 23.1 90 1.2 E 7 9 4 5 1008.6 1008.6 0.0
14/06:00am 24.6 29.9 23.0 91 1.1 CALM 0 0 0 0 1008.1 1008.1 0.0
14/05:30am 24.0 28.7 21.9 88 1.4 CALM 0 0 0 0 1007.8 1007.8 0.0
14/05:00am 25.0 28.8 22.7 87 1.5 W 7 7 4 4 1007.2 1007.2 0.0
14/04:30am 25.3 29.4 23.0 87 1.6 SSW 6 6 3 3 1006.9 1006.9 0.0
14/04:00am 25.6 29.5 22.5 83 2.1 SW 6 7 3 4 1006.9 1006.9 0.0
14/03:30am 26.1 29.9 22.8 82 2.2 SSW 7 9 4 5 1007.1 1007.1 0.0
14/03:00am 26.4 29.5 22.9 81 2.4 SSW 11 11 6 6 1007.3 1007.3 0.0
14/02:30am 26.7 30.4 22.5 78 2.8 SW 7 9 4 5 1007.2 1007.2 0.0
14/02:00am 27.2 30.2 22.6 76 3.1 WSW 11 13 6 7 1007.4 1007.4 0.0
14/01:30am 28.0 30.9 22.5 72 3.7 W 11 13 6 7 1007.6 1007.6 0.0
14/01:00am 28.7 31.0 23.4 73 3.6 WSW 17 20 9 11 1008.0 1008.0 0.0
14/12:30am 28.1 32.0 24.3 80 2.6 WSW 11 13 6 7 1008.4 1008.4 0.0
14/12:00am 27.4 31.5 23.0 77 3.0 SSW 6 7 3 4 1008.5 1008.5 0.0
 
Date/Time
CST
Temp
°C
App
Temp
°C
Dew
Point
°C
Rel
Hum
%
Delta-T
°C
Wind Press
QNH
hPa
Press
MSL
hPa
Rain since
9am
mm
Dir  Spd
km/h
Gust
km/h
Spd
kts
Gust
kts
13/11:30pm 28.1 31.4 23.2 74 3.4 W 11 15 6 8 1008.8 1008.8 0.0
13/11:00pm 28.4 31.6 23.1 73 3.6 W 11 13 6 7 1009.1 1009.1 0.0
13/10:30pm 29.0 32.4 24.1 75 3.4 WSW 13 15 7 8 1009.3 1009.3 0.0
13/10:00pm 29.5 33.2 24.6 75 3.4 WNW 13 15 7 8 1009.1 1009.1 0.0
13/09:30pm 29.2 34.1 25.2 79 2.8 NNW 9 15 5 8 1008.7 1008.7 0.0
13/09:00pm 29.1 33.1 24.4 76 3.3 NNW 11 20 6 11 1008.3 1008.3 0.0
13/08:30pm 28.9 33.2 23.6 73 3.7 NNW 7 15 4 8 1007.8 1007.8 0.0
13/08:00pm 28.9 32.7 24.7 78 2.9 NNW 13 20 7 11 1007.5 1007.5 0.0
13/07:30pm 28.9 32.2 24.5 77 3.1 NNW 15 20 8 11 1007.5 1007.5 0.0
13/07:00pm 29.2 33.1 24.3 75 3.4 NNW 11 19 6 10 1007.0 1007.0 0.0
13/06:30pm 29.6 33.5 24.2 73 3.8 NNW 11 20 6 11 1006.6 1006.6 0.0
13/06:00pm 30.5 34.8 24.2 69 4.4 NNW 9 19 5 10 1006.2 1006.2 0.0
13/05:30pm 31.7 35.3 24.3 65 5.2 NNW 13 22 7 12 1005.8 1005.8 0.0
13/05:00pm 32.9 35.7 23.0 56 6.8 NNW 13 20 7 11 1005.8 1005.8 0.0
13/04:30pm 32.9 35.4 22.4 54 7.2 NW 13 20 7 11 1006.2 1006.2 0.0
13/04:00pm 32.9 34.9 23.0 56 6.8 NW 17 24 9 13 1006.2 1006.2 0.0
13/03:30pm 33.1 35.6 23.1 55 6.9 NW 15 24 8 13 1006.4 1006.4 0.0
13/03:00pm 32.7 36.4 23.9 60 6.1 NNW 11 22 6 12 1006.8 1006.8 0.0
13/02:30pm 33.3 36.7 23.3 55 6.9 N 11 19 6 10 1006.9 1006.9 0.0
13/02:00pm 32.4 34.9 22.5 56 6.8 N 13 22 7 12 1007.0 1007.0 0.0
13/01:30pm 33.4 36.9 24.8 60 6.1 N 15 28 8 15 1007.6 1007.6 0.0
13/01:00pm 32.8 36.2 24.0 60 6.1 N 13 20 7 11 1008.1 1008.1 0.0
13/12:30pm 33.3 37.5 24.7 60 6.1 N 11 20 6 11 1008.5 1008.5 0.0
13/12:00pm 32.7 36.2 24.2 61 6.0 N 13 20 7 11 1008.8 1008.8 0.0
13/11:30am 32.6 36.3 24.6 62 5.6 N 13 20 7 11 1009.2 1009.2 0.0
13/11:00am 32.8 36.5 24.6 62 5.8 NNE 13 20 7 11 1009.4 1009.4 0.0
13/10:30am 33.2 37.4 24.7 61 6.0 NNE 11 19 6 10 1009.6 1009.6 0.0
13/10:00am 30.9 34.2 23.8 66 4.9 NNE 13 19 7 10 1009.8 1009.8 0.0
13/09:30am 31.5 35.9 25.1 69 4.5 NE 11 19 6 10 1009.8 1009.8 0.0
13/09:00am 30.2 34.2 24.4 71 4.0 NE 11 17 6 9 1009.7 1009.7 0.0
13/08:30am 30.0 34.6 25.3 76 3.3 ENE 11 17 6 9 1009.6 1009.6 0.0
13/08:00am 29.8 34.1 24.9 75 3.4 E 11 15 6 8 1009.4 1009.4 0.0
13/07:30am 27.8 33.3 25.6 88 1.6 E 7 11 4 6 1009.1 1009.1 0.0
13/07:00am 24.6 30.2 23.6 94 0.7 CALM 0 0 0 0 1008.8 1008.8 0.0
13/06:30am 24.1 29.1 22.5 91 1.1 CALM 0 0 0 0 1008.5 1008.5 0.0

Latest Capital City Observations: Canberra | Sydney | Melbourne | Brisbane | Adelaide | Perth | Hobart | Darwin

Other formats

Comma delimited format used in spreadsheet applications
http://www.bom.gov.au/fwo/IDD60901/IDD60901.94127.axf

JavaScript Object Notation format (JSON) in row-major order
http://www.bom.gov.au/fwo/IDD60901/IDD60901.94127.json

Data quality

Most of these data are generated automatically and are frequently updated. Quality checks on data are not normally performed. It is possible for incorrect values to appear. Refer to information at About Latest Weather Observations and please check the disclaimer before using these data.